Time;durP1;ratioP1;P1;durP2;ratioP2;P2;SDS_P1;SDS_P2;PMS_P1;PMS_P2;Temp;Humidity;BMP_temperature;BMP_pressure;BME280_temperature;BME280_humidity;BME280_pressure;Samples;Min_cycle;Max_cycle;Signal;HPM_P1;HPM_P2
2022/04/21 00:00:18;;;;;;;11.30;3.55;;;8.40;99.90;;;;;;5096613;28;20109;-73
2022/04/21 00:02:45;;;;;;;4.38;3.33;;;8.40;99.90;;;;;;5096152;28;20089;-73
2022/04/21 00:05:13;;;;;;;4.45;2.90;;;8.40;99.90;;;;;;5096920;28;20105;-73
2022/04/21 00:07:40;;;;;;;5.07;3.42;;;8.30;99.90;;;;;;5097569;28;20093;-72
2022/04/21 00:10:08;;;;;;;7.78;3.78;;;8.40;99.90;;;;;;5115077;28;20043;-73
2022/04/21 00:12:35;;;;;;;6.18;4.32;;;8.40;99.90;;;;;;5116025;28;20451;-74
2022/04/21 00:15:02;;;;;;;4.75;2.95;;;8.30;99.90;;;;;;5115851;28;20055;-74
2022/04/21 00:17:30;;;;;;;3.80;2.83;;;8.30;99.90;;;;;;5114413;28;20043;-73
2022/04/21 00:19:57;;;;;;;6.82;3.85;;;8.30;99.90;;;;;;5114337;28;20047;-74
2022/04/21 00:25:08;;;;;;;4.60;3.65;;;8.20;99.90;;;;;;5096547;28;20054;-74
2022/04/21 00:27:38;;;;;;;8.80;3.10;;;8.20;99.90;;;;;;5110157;28;20501;-74
2022/04/21 00:30:07;;;;;;;3.42;2.95;;;8.20;99.90;;;;;;5096182;28;20573;-74
2022/04/21 00:32:35;;;;;;;6.82;3.22;;;8.20;99.90;;;;;;5095699;28;20046;-73
2022/04/21 00:35:02;;;;;;;4.80;3.25;;;8.10;99.90;;;;;;5095559;28;20117;-73
2022/04/21 00:37:29;;;;;;;3.38;3.08;;;8.10;99.90;;;;;;5096313;28;20413;-73
2022/04/21 00:39:56;;;;;;;7.15;4.22;;;8.20;99.90;;;;;;5096369;28;20066;-73
2022/04/21 00:42:23;;;;;;;5.20;3.17;;;8.10;99.90;;;;;;5097366;28;20501;-74
2022/04/21 00:44:50;;;;;;;6.78;3.42;;;8.10;99.90;;;;;;5115015;28;20443;-74
2022/04/21 00:47:18;;;;;;;3.50;2.87;;;8.20;99.90;;;;;;5113926;28;20036;-74
2022/04/21 00:49:47;;;;;;;8.90;3.80;;;8.10;99.90;;;;;;5115715;28;20171;-74
2022/04/21 00:52:15;;;;;;;7.70;3.33;;;8.10;99.90;;;;;;5114414;28;20047;-74
2022/04/21 00:54:42;;;;;;;4.18;3.00;;;8.10;99.90;;;;;;5115011;28;20453;-72
2022/04/21 00:57:10;;;;;;;4.68;3.55;;;8.10;99.90;;;;;;5115282;28;20408;-73
2022/04/21 00:59:38;;;;;;;6.10;3.40;;;8.00;99.90;;;;;;5113518;28;20538;-74
2022/04/21 01:04:51;;;;;;;5.28;3.78;;;8.10;99.90;;;;;;5108063;28;20538;-74
2022/04/21 01:07:17;;;;;;;4.05;3.50;;;8.10;99.90;;;;;;5115253;28;20043;-74
2022/04/21 01:09:44;;;;;;;5.37;3.97;;;8.10;99.90;;;;;;5098089;28;20105;-72
2022/04/21 01:12:13;;;;;;;9.25;3.60;;;8.00;99.90;;;;;;5094842;28;20048;-73
2022/04/21 01:14:40;;;;;;;5.97;3.05;;;8.10;99.90;;;;;;5095627;28;20189;-73
2022/04/21 01:17:07;;;;;;;3.80;3.30;;;8.00;99.90;;;;;;5094621;28;20169;-74
2022/04/21 01:19:34;;;;;;;6.60;4.13;;;8.00;99.90;;;;;;5095707;28;20097;-74
2022/04/21 01:22:02;;;;;;;13.80;4.10;;;8.00;99.90;;;;;;5094624;28;20101;-73
2022/04/21 01:24:29;;;;;;;4.67;3.40;;;8.00;99.90;;;;;;5095389;28;20048;-74
2022/04/21 01:26:57;;;;;;;4.82;3.15;;;8.00;99.90;;;;;;5095801;28;20043;-73
2022/04/21 01:29:23;;;;;;;3.67;3.20;;;7.90;99.90;;;;;;5095511;28;20070;-74
2022/04/21 01:31:50;;;;;;;6.30;2.90;;;8.00;99.90;;;;;;5099080;28;20047;-73
2022/04/21 01:34:17;;;;;;;4.87;3.37;;;7.90;99.90;;;;;;5114495;28;20047;-73
2022/04/21 01:42:14;;;;;;;5.33;3.50;;;7.90;99.90;;;;;;5110479;28;20066;-73
2022/04/21 01:44:40;;;;;;;4.57;3.60;;;7.90;99.90;;;;;;5114559;28;20074;-73
2022/04/21 01:47:07;;;;;;;4.63;3.40;;;7.90;99.90;;;;;;5112282;28;20039;-73
2022/04/21 01:49:34;;;;;;;7.13;4.00;;;7.80;99.90;;;;;;5114508;28;20056;-73
2022/04/21 01:52:01;;;;;;;8.27;4.00;;;7.80;99.90;;;;;;5112327;28;20058;-73
2022/04/21 01:54:29;;;;;;;6.73;3.60;;;7.80;99.90;;;;;;5112174;28;20043;-73
2022/04/21 01:56:56;;;;;;;7.40;4.07;;;7.80;99.90;;;;;;5112534;28;20039;-72
2022/04/21 01:59:22;;;;;;;5.23;3.87;;;7.80;99.90;;;;;;5114108;28;20493;-75
2022/04/21 02:01:50;;;;;;;6.35;3.72;;;7.80;99.90;;;;;;5112369;28;20046;-74
2022/04/21 02:04:17;;;;;;;7.13;3.70;;;7.80;99.90;;;;;;5112321;28;20043;-73
2022/04/21 02:06:43;;;;;;;5.82;4.00;;;7.80;99.90;;;;;;5112268;28;20433;-73
2022/04/21 02:09:10;;;;;;;7.93;3.73;;;7.80;99.90;;;;;;5093457;28;20052;-73
2022/04/21 02:11:38;;;;;;;6.68;4.00;;;7.80;99.90;;;;;;5092892;28;20047;-76
2022/04/21 02:14:05;;;;;;;6.97;4.28;;;7.80;99.90;;;;;;5097356;28;20105;-73
2022/04/21 02:16:31;;;;;;;5.00;3.05;;;7.70;99.90;;;;;;5093657;28;20048;-74
2022/04/21 02:18:58;;;;;;;9.52;4.00;;;7.70;99.90;;;;;;5094151;28;20443;-73
2022/04/21 02:21:24;;;;;;;8.15;4.20;;;7.70;99.90;;;;;;5093727;28;20048;-73
2022/04/21 02:23:51;;;;;;;5.30;3.80;;;7.70;99.90;;;;;;5094327;28;20055;-74
2022/04/21 02:26:18;;;;;;;6.67;4.17;;;7.60;99.90;;;;;;5093688;28;20051;-74
2022/04/21 02:28:46;;;;;;;6.57;4.13;;;7.70;99.90;;;;;;5094593;28;20064;-73
2022/04/21 02:31:13;;;;;;;6.67;3.57;;;7.70;99.90;;;;;;5093536;28;20117;-74
2022/04/21 02:33:39;;;;;;;8.23;4.27;;;7.70;99.90;;;;;;5105769;28;20040;-73
2022/04/21 02:36:06;;;;;;;6.93;3.90;;;7.70;99.90;;;;;;5111746;28;20512;-72
2022/04/21 02:38:33;;;;;;;7.50;4.97;;;7.60;99.90;;;;;;5111970;28;20044;-74
2022/04/21 02:40:59;;;;;;;5.40;4.27;;;7.60;99.90;;;;;;5113696;28;20052;-73
2022/04/21 02:43:26;;;;;;;6.03;3.90;;;7.60;99.90;;;;;;5111823;28;20093;-73
2022/04/21 02:45:54;;;;;;;8.97;4.97;;;7.60;99.90;;;;;;5094455;28;20044;-73
2022/04/21 02:48:21;;;;;;;7.47;3.93;;;7.60;99.90;;;;;;5093520;28;20056;-74
2022/04/21 02:50:49;;;;;;;6.30;3.63;;;7.50;99.90;;;;;;5093132;28;20051;-73
2022/04/21 02:53:18;;;;;;;6.33;3.80;;;7.50;99.90;;;;;;5094400;28;20078;-72
2022/04/21 02:58:29;;;;;;;5.90;3.67;;;7.50;99.90;;;;;;5113565;28;20135;-72
2022/04/21 03:00:56;;;;;;;8.50;4.27;;;7.50;99.90;;;;;;5113370;28;20100;-73
2022/04/21 03:03:23;;;;;;;7.43;4.17;;;7.50;99.90;;;;;;5105914;28;20097;-73
2022/04/21 03:05:50;;;;;;;10.30;4.53;;;7.50;99.90;;;;;;5093077;28;20109;-72
2022/04/21 03:08:17;;;;;;;7.47;3.60;;;7.50;99.90;;;;;;5092929;28;20093;-73
2022/04/21 03:10:43;;;;;;;6.20;3.70;;;7.50;99.90;;;;;;5101503;28;20067;-73
2022/04/21 03:13:10;;;;;;;7.87;4.70;;;7.50;99.90;;;;;;5113817;28;20120;-73
2022/04/21 03:15:36;;;;;;;5.83;3.87;;;7.50;99.90;;;;;;5109100;28;20479;-73
2022/04/21 03:18:05;;;;;;;8.90;3.97;;;7.50;99.90;;;;;;5113123;28;20051;-73
2022/04/21 03:26:05;;;;;;;8.23;4.30;;;7.40;99.90;;;;;;5019136;28;20104;-73
2022/04/21 03:28:31;;;;;;;4.77;3.77;;;7.50;99.90;;;;;;5101579;28;20550;-72
2022/04/21 03:30:58;;;;;;;5.37;3.60;;;7.40;99.90;;;;;;5109116;28;20039;-73
2022/04/21 03:33:26;;;;;;;4.50;3.43;;;7.50;99.90;;;;;;5117071;28;20043;-74
2022/04/21 03:35:53;;;;;;;9.97;4.90;;;7.40;99.90;;;;;;5116757;28;20072;-73
2022/04/21 03:38:19;;;;;;;5.07;4.57;;;7.40;99.90;;;;;;5113295;28;20096;-73
2022/04/21 03:40:46;;;;;;;6.60;4.23;;;7.40;99.90;;;;;;5116884;28;20043;-74
2022/04/21 03:43:13;;;;;;;10.10;5.47;;;7.40;99.90;;;;;;5114945;28;20077;-73
2022/04/21 03:45:39;;;;;;;5.50;4.30;;;7.40;99.90;;;;;;5116747;28;20051;-74
2022/04/21 03:48:06;;;;;;;9.30;4.23;;;7.40;99.90;;;;;;5113272;28;20039;-73
2022/04/21 03:50:35;;;;;;;5.00;4.00;;;7.40;99.90;;;;;;5116780;28;20051;-73
2022/04/21 03:53:01;;;;;;;7.60;4.53;;;7.30;99.90;;;;;;5116725;28;20105;-73
2022/04/21 03:55:28;;;;;;;5.70;4.60;;;7.30;99.90;;;;;;5116474;28;20044;-73
2022/04/21 03:57:54;;;;;;;7.57;4.73;;;7.30;99.90;;;;;;5112844;28;20044;-72
2022/04/21 04:00:21;;;;;;;5.43;4.03;;;7.30;99.90;;;;;;5114807;28;20040;-73
2022/04/21 04:02:48;;;;;;;8.77;4.43;;;7.30;99.90;;;;;;5116153;28;20071;-73
2022/04/21 04:05:15;;;;;;;8.07;4.70;;;7.30;99.90;;;;;;5116707;28;20451;-74
2022/04/21 04:13:11;;;;;;;5.60;4.43;;;7.30;99.90;;;;;;5115568;28;20050;-74
2022/04/21 04:15:38;;;;;;;10.23;4.27;;;7.30;99.90;;;;;;5116263;28;20089;-74
2022/04/21 04:18:06;;;;;;;8.10;4.53;;;7.20;99.90;;;;;;5116379;28;20057;-73
2022/04/21 04:20:32;;;;;;;10.13;4.80;;;7.20;99.90;;;;;;5112567;28;20048;-72
2022/04/21 04:23:00;;;;;;;8.87;4.67;;;7.20;99.90;;;;;;5116135;28;20450;-73
2022/04/21 04:25:27;;;;;;;7.03;4.53;;;7.30;99.90;;;;;;5104960;28;20451;-73
2022/04/21 04:27:53;;;;;;;11.50;5.10;;;7.20;99.90;;;;;;5095638;28;20048;-73
2022/04/21 04:30:20;;;;;;;12.77;5.10;;;7.20;99.90;;;;;;5097563;28;20089;-73
2022/04/21 04:32:47;;;;;;;5.60;4.13;;;7.30;99.90;;;;;;5095638;28;20048;-74
2022/04/21 04:35:13;;;;;;;8.27;5.43;;;7.30;99.90;;;;;;5094892;28;20063;-73
2022/04/21 04:37:40;;;;;;;11.07;5.37;;;7.30;99.90;;;;;;5095719;28;20105;-73
2022/04/21 04:40:09;;;;;;;7.13;4.70;;;7.30;99.90;;;;;;5096425;28;20052;-74
2022/04/21 04:42:35;;;;;;;7.25;4.75;;;7.30;99.90;;;;;;5112292;28;20050;-73
2022/04/21 04:47:46;;;;;;;12.33;5.33;;;7.30;99.90;;;;;;5115514;28;20134;-73
2022/04/21 04:50:12;;;;;;;14.07;5.23;;;7.30;99.90;;;;;;5115711;28;20043;-74
2022/04/21 04:52:39;;;;;;;4.97;4.20;;;7.30;99.90;;;;;;5112641;28;20096;-73
2022/04/21 04:55:11;;;;;;;11.47;5.43;;;7.40;99.90;;;;;;5115144;28;20054;-74
2022/04/21 04:57:39;;;;;;;6.07;4.87;;;7.30;99.90;;;;;;5114825;28;20062;-73
2022/04/21 05:00:08;;;;;;;9.90;5.37;;;7.30;99.90;;;;;;5115126;28;20120;-74
2022/04/21 05:02:35;;;;;;;9.50;4.80;;;7.40;99.90;;;;;;5113401;28;20044;-74
2022/04/21 05:05:02;;;;;;;7.67;5.20;;;7.40;99.90;;;;;;5115443;28;20112;-74
2022/04/21 05:07:28;;;;;;;12.73;5.50;;;7.40;99.90;;;;;;5115369;28;20050;-74
2022/04/21 05:09:55;;;;;;;9.82;5.53;;;7.40;99.90;;;;;;5116776;28;20113;-73
2022/04/21 05:12:24;;;;;;;15.77;5.30;;;7.50;99.90;;;;;;5115030;28;20060;-73
2022/04/21 05:14:52;;;;;;;9.50;4.82;;;7.50;99.90;;;;;;5109841;28;20052;-74
2022/04/21 05:17:19;;;;;;;7.70;5.10;;;7.50;99.90;;;;;;5101240;28;20489;-73
2022/04/21 05:19:46;;;;;;;11.23;5.40;;;7.50;99.90;;;;;;5094734;28;20048;-74
2022/04/21 05:22:14;;;;;;;10.27;5.33;;;7.60;99.90;;;;;;5094276;28;20498;-73
2022/04/21 05:24:45;;;;;;;7.23;5.07;;;7.60;99.90;;;;;;5094573;28;20044;-74
2022/04/21 05:27:13;;;;;;;7.73;5.37;;;7.60;99.90;;;;;;5095169;28;20505;-73
2022/04/21 05:32:28;;;;;;;8.02;4.78;;;7.70;99.90;;;;;;5094548;28;20424;-74
2022/04/21 05:34:56;;;;;;;8.00;6.03;;;7.70;99.90;;;;;;5094400;28;20072;-73
2022/04/21 05:37:23;;;;;;;6.70;5.20;;;7.80;99.90;;;;;;5095405;28;20052;-73
2022/04/21 05:39:50;;;;;;;6.93;4.30;;;7.80;99.90;;;;;;5094203;28;20048;-73
2022/04/21 05:42:23;;;;;;;6.97;5.03;;;7.80;99.90;;;;;;5094989;28;20481;-73
2022/04/21 05:44:52;;;;;;;12.70;4.70;;;7.90;99.90;;;;;;5094209;28;20054;-72
2022/04/21 05:47:19;;;;;;;8.70;5.57;;;8.00;99.90;;;;;;5101858;28;20054;-73
2022/04/21 05:49:46;;;;;;;6.63;5.15;;;8.00;99.90;;;;;;5112647;28;20040;-72
2022/04/21 05:52:14;;;;;;;10.48;5.22;;;8.00;99.90;;;;;;5114462;28;20051;-74
2022/04/21 05:54:42;;;;;;;6.57;4.27;;;8.00;99.90;;;;;;5109920;28;20100;-73
2022/04/21 05:57:09;;;;;;;5.90;5.20;;;8.00;99.90;;;;;;5113803;28;20051;-72
2022/04/21 05:59:37;;;;;;;10.73;4.20;;;8.00;99.90;;;;;;5113891;28;20055;-73
2022/04/21 06:02:05;;;;;;;8.82;5.55;;;8.00;99.90;;;;;;5113949;28;20058;-74
2022/04/21 06:04:32;;;;;;;7.15;5.15;;;8.00;99.90;;;;;;5111899;28;20112;-73
2022/04/21 06:06:59;;;;;;;5.88;4.47;;;8.10;99.90;;;;;;5114033;28;20393;-74
2022/04/21 06:09:26;;;;;;;9.10;4.65;;;8.20;99.90;;;;;;5113846;28;20056;-73
2022/04/21 06:11:53;;;;;;;10.70;7.15;;;8.20;99.90;;;;;;5114128;28;20105;-73
2022/04/21 06:14:19;;;;;;;13.15;7.28;;;8.40;99.90;;;;;;5101550;28;20078;-74
2022/04/21 06:16:46;;;;;;;18.40;9.43;;;8.50;99.90;;;;;;5093781;28;20101;-74
2022/04/21 06:19:14;;;;;;;10.05;6.00;;;8.50;99.90;;;;;;5093840;28;20051;-74
2022/04/21 06:21:41;;;;;;;10.07;6.07;;;8.50;99.90;;;;;;5093839;28;20056;-74
2022/04/21 06:24:08;;;;;;;19.13;8.25;;;8.60;99.90;;;;;;5101300;28;20047;-72
2022/04/21 06:26:34;;;;;;;8.60;5.68;;;8.70;99.90;;;;;;5111833;28;20131;-74
2022/04/21 06:29:02;;;;;;;19.65;5.63;;;8.90;99.90;;;;;;5113597;28;20386;-73
2022/04/21 06:31:29;;;;;;;21.63;8.75;;;9.00;99.90;;;;;;5099795;28;20047;-74
2022/04/21 06:33:57;;;;;;;8.18;5.68;;;9.20;99.90;;;;;;5093414;28;20044;-72
2022/04/21 06:36:25;;;;;;;10.75;6.80;;;9.30;99.90;;;;;;5094212;28;20044;-74
2022/04/21 06:38:53;;;;;;;11.55;6.95;;;9.40;99.90;;;;;;5093714;28;20066;-72
2022/04/21 06:41:19;;;;;;;12.35;5.40;;;9.40;99.90;;;;;;5093872;28;20555;-73
2022/04/21 06:49:14;;;;;;;9.00;5.47;;;9.60;99.90;;;;;;5113602;28;20063;-73
2022/04/21 06:51:44;;;;;;;8.15;5.65;;;9.60;99.90;;;;;;5111640;28;20112;-73
2022/04/21 06:54:10;;;;;;;10.80;5.43;;;9.60;99.90;;;;;;5111665;28;20534;-74
2022/04/21 06:56:37;;;;;;;7.05;5.28;;;9.70;99.90;;;;;;5113604;28;20051;-73
2022/04/21 06:59:05;;;;;;;13.10;6.68;;;9.70;99.90;;;;;;5117542;28;20478;-74
2022/04/21 07:01:32;;;;;;;18.55;8.63;;;9.70;99.90;;;;;;5115600;28;20580;-72
2022/04/21 07:03:59;;;;;;;10.38;5.00;;;9.80;99.90;;;;;;5115867;28;20067;-73
2022/04/21 07:06:25;;;;;;;13.77;5.88;;;9.80;99.90;;;;;;5117912;28;20159;-73
2022/04/21 07:08:53;;;;;;;14.35;9.25;;;9.80;99.90;;;;;;5115915;28;20064;-72
2022/04/21 07:11:22;;;;;;;8.93;5.60;;;9.80;99.90;;;;;;5102614;28;20092;-74
2022/04/21 07:13:48;;;;;;;7.75;5.43;;;9.70;99.90;;;;;;5117557;28;20054;-73
2022/04/21 07:16:15;;;;;;;10.85;5.53;;;9.70;99.90;;;;;;5104426;28;20054;-73
2022/04/21 07:18:42;;;;;;;10.68;5.40;;;9.70;99.90;;;;;;5096705;28;20048;-70
2022/04/21 07:21:09;;;;;;;10.02;5.15;;;9.70;99.90;;;;;;5114065;28;20048;-70
2022/04/21 07:23:36;;;;;;;9.38;6.25;;;9.60;99.90;;;;;;5114733;28;20079;-70
2022/04/21 07:26:05;;;;;;;6.80;5.55;;;9.60;99.90;;;;;;5114919;28;20097;-71
2022/04/21 07:28:33;;;;;;;19.40;9.20;;;9.60;99.90;;;;;;5116413;28;20090;-70
2022/04/21 07:31:01;;;;;;;9.85;5.90;;;9.60;99.90;;;;;;5102374;28;20044;-71
2022/04/21 07:33:28;;;;;;;10.43;6.47;;;9.70;99.90;;;;;;5096513;28;20079;-70
2022/04/21 07:35:56;;;;;;;21.17;10.63;;;9.70;99.90;;;;;;5115877;28;20047;-70
2022/04/21 07:38:24;;;;;;;10.13;6.72;;;9.70;99.90;;;;;;5103545;28;20052;-69
2022/04/21 07:40:53;;;;;;;21.52;10.85;;;9.80;99.90;;;;;;5097364;28;20044;-70
2022/04/21 07:43:23;;;;;;;16.38;9.98;;;9.80;99.90;;;;;;5097037;28;20097;-71
2022/04/21 07:45:51;;;;;;;11.80;7.30;;;9.90;99.90;;;;;;5097155;28;20044;-71
2022/04/21 07:48:19;;;;;;;9.25;5.43;;;9.90;99.90;;;;;;5096197;28;20497;-73
2022/04/21 07:50:46;;;;;;;8.32;6.03;;;9.90;99.90;;;;;;5096911;28;20420;-73
2022/04/21 07:53:15;;;;;;;10.75;6.75;;;9.90;99.90;;;;;;5095853;28;20052;-74
2022/04/21 07:55:44;;;;;;;10.63;6.57;;;9.90;99.90;;;;;;5097984;28;20143;-73
2022/04/21 07:58:11;;;;;;;13.13;7.20;;;9.90;99.90;;;;;;5096450;28;20139;-73
2022/04/21 08:00:40;;;;;;;6.80;5.18;;;10.00;99.90;;;;;;5096595;28;20051;-73
2022/04/21 08:03:07;;;;;;;8.93;4.80;;;10.00;99.90;;;;;;5097073;28;20045;-73
2022/04/21 08:05:34;;;;;;;7.15;5.05;;;10.00;99.90;;;;;;5104679;28;20052;-72
2022/04/21 08:08:02;;;;;;;9.95;5.18;;;10.00;99.90;;;;;;5100022;28;20055;-74
2022/04/21 08:10:29;;;;;;;6.05;4.75;;;9.90;99.90;;;;;;5094954;28;20048;-72
2022/04/21 08:12:58;;;;;;;6.18;5.47;;;9.80;99.90;;;;;;5096248;28;20473;-74
2022/04/21 08:15:27;;;;;;;6.38;5.18;;;10.00;99.90;;;;;;5096673;28;20426;-73
2022/04/21 08:17:56;;;;;;;9.65;5.47;;;9.90;99.90;;;;;;5096703;28;20039;-74
2022/04/21 08:20:24;;;;;;;9.38;5.85;;;10.00;99.90;;;;;;5096937;28;20052;-76
2022/04/21 08:22:50;;;;;;;8.60;5.53;;;9.90;99.90;;;;;;5095864;28;20044;-73
2022/04/21 08:33:32;;;;;;;7.40;4.88;;;10.00;99.90;;;;;;5099550;28;20078;-74
2022/04/21 08:35:59;;;;;;;10.13;5.78;;;10.00;99.90;;;;;;5095594;28;20044;-75
2022/04/21 08:38:27;;;;;;;8.35;5.35;;;10.10;99.90;;;;;;5096530;28;20044;-76
2022/04/21 08:40:55;;;;;;;7.68;5.88;;;10.10;99.90;;;;;;5096843;28;20044;-74
2022/04/21 08:43:23;;;;;;;8.02;5.28;;;10.10;99.90;;;;;;5096393;28;20477;-75
2022/04/21 08:45:51;;;;;;;9.00;5.22;;;10.20;99.90;;;;;;5095004;28;20097;-73
2022/04/21 08:48:23;;;;;;;10.43;5.35;;;10.20;99.90;;;;;;5096211;28;20044;-75
2022/04/21 08:50:51;;;;;;;;;;;10.30;99.90;;;;;;5096553;28;20109;-74
2022/04/21 08:53:19;;;;;;;6.20;4.45;;;10.30;99.90;;;;;;5094938;28;20365;-73
2022/04/21 08:55:46;;;;;;;9.40;5.88;;;10.40;99.90;;;;;;5095899;28;20051;-75
2022/04/21 08:58:13;;;;;;;9.02;5.43;;;10.60;99.90;;;;;;5094483;28;20436;-74
2022/04/21 09:00:40;;;;;;;7.72;5.68;;;10.80;99.90;;;;;;5099454;28;20040;-74
2022/04/21 09:03:08;;;;;;;8.70;4.85;;;11.10;99.90;;;;;;5095892;28;20102;-75
2022/04/21 09:05:34;;;;;;;8.68;5.28;;;11.40;99.90;;;;;;5113978;28;20059;-74
2022/04/21 09:08:03;;;;;;;6.60;5.72;;;11.40;99.90;;;;;;5115271;28;20417;-73
2022/04/21 09:10:32;;;;;;;9.48;5.68;;;11.40;99.90;;;;;;5101822;28;20401;-73
2022/04/21 09:13:01;;;;;;;8.07;5.93;;;11.40;99.90;;;;;;5095954;28;20047;-73
2022/04/21 09:15:29;;;;;;;19.17;6.05;;;11.40;99.90;;;;;;5096162;28;20378;-73
2022/04/21 09:17:58;;;;;;;10.35;6.80;;;11.40;99.90;;;;;;5100833;28;20040;-74
2022/04/21 09:20:29;;;;;;;9.65;6.32;;;11.30;99.90;;;;;;5121736;28;20047;-75
2022/04/21 09:22:57;;;;;;;8.90;6.30;;;11.30;99.90;;;;;;5125933;28;20126;-71
2022/04/21 09:25:26;;;;;;;6.93;5.47;;;11.30;99.90;;;;;;5115531;28;20051;-72
2022/04/21 09:27:54;;;;;;;8.88;6.50;;;11.40;99.90;;;;;;5116045;28;20047;-72
2022/04/21 09:30:21;;;;;;;9.32;6.82;;;11.40;99.90;;;;;;5118071;28;20044;-72
2022/04/21 09:32:53;;;;;;;9.85;7.15;;;11.30;99.90;;;;;;5116550;28;20047;-71
2022/04/21 09:35:21;;;;;;;9.52;6.85;;;11.20;99.90;;;;;;5115927;28;20126;-71
2022/04/21 09:37:49;;;;;;;8.20;6.45;;;11.10;99.90;;;;;;5116469;28;20040;-71
2022/04/21 09:40:17;;;;;;;8.50;5.97;;;11.10;99.90;;;;;;5120029;28;20101;-73
2022/04/21 09:42:54;;;;;;;8.45;5.88;;;11.20;99.90;;;;;;5117598;28;20040;-71
2022/04/21 09:48:17;;;;;;;8.40;6.20;;;11.50;99.90;;;;;;5099815;28;20542;-74
2022/04/21 09:50:49;;;;;;;13.65;7.38;;;11.50;99.90;;;;;;5111424;28;20489;-74
2022/04/21 09:53:19;;;;;;;7.85;6.45;;;11.50;99.90;;;;;;5095091;28;20122;-73
2022/04/21 09:55:46;;;;;;;8.20;7.45;;;11.60;99.90;;;;;;5094877;28;20044;-74
2022/04/21 09:58:14;;;;;;;7.75;6.95;;;11.60;99.90;;;;;;5094139;28;20101;-73
2022/04/21 10:00:42;;;;;;;9.45;6.53;;;11.50;99.90;;;;;;5093956;28;20381;-73
2022/04/21 10:03:10;;;;;;;8.35;6.25;;;11.50;99.90;;;;;;5094036;28;20048;-73
2022/04/21 10:05:39;;;;;;;11.30;7.57;;;11.50;99.90;;;;;;5093927;28;20044;-73
2022/04/21 10:08:07;;;;;;;10.55;6.38;;;11.50;99.90;;;;;;5093589;28;20040;-73
2022/04/21 10:10:35;;;;;;;8.27;7.18;;;11.50;99.90;;;;;;5093580;28;20497;-74
2022/04/21 10:13:04;;;;;;;11.40;7.60;;;11.50;99.90;;;;;;5093855;28;20048;-74
2022/04/21 10:15:34;;;;;;;9.43;7.28;;;11.40;99.90;;;;;;5094433;28;20048;-74
2022/04/21 10:18:00;;;;;;;10.27;7.07;;;11.40;99.90;;;;;;5094345;28;20109;-73
2022/04/21 10:20:29;;;;;;;12.20;7.30;;;11.30;99.90;;;;;;5093774;28;20056;-73
2022/04/21 10:22:57;;;;;;;11.25;7.93;;;11.40;99.90;;;;;;5093330;28;20101;-73
2022/04/21 10:25:38;;;;;;;10.07;6.82;;;11.40;99.90;;;;;;5093662;28;20440;-73
2022/04/21 10:28:35;;;;;;;10.00;6.65;;;11.40;99.90;;;;;;5093700;28;20105;-73
2022/04/21 10:31:34;;;;;;;12.50;6.95;;;11.30;99.90;;;;;;5093597;28;20048;-73
2022/04/21 10:34:02;;;;;;;7.53;6.80;;;11.30;99.90;;;;;;5093554;28;20048;-75
2022/04/21 10:36:41;;;;;;;11.75;7.13;;;11.30;99.90;;;;;;5093327;28;20044;-74
2022/04/21 10:39:27;;;;;;;11.98;7.70;;;11.30;99.90;;;;;;5093465;28;20082;-74
2022/04/21 10:42:18;;;;;;;8.98;7.35;;;11.40;99.90;;;;;;5093411;28;20044;-74
2022/04/21 10:44:48;;;;;;;11.35;7.40;;;11.60;99.90;;;;;;5093987;28;20048;-73
2022/04/21 10:47:37;;;;;;;10.68;7.53;;;11.90;99.90;;;;;;5093378;28;20055;-74
2022/04/21 10:50:18;;;;;;;10.02;7.32;;;12.10;99.90;;;;;;5088847;28;20055;-74
2022/04/21 10:58:50;;;;;;;9.77;6.72;;;12.30;99.90;;;;;;5093275;28;20051;-73
2022/04/21 11:01:28;;;;;;;7.78;6.18;;;12.50;99.90;;;;;;5093097;28;20117;-73
2022/04/21 11:04:20;;;;;;;9.27;7.18;;;12.50;99.90;;;;;;5093289;28;20433;-74
2022/04/21 11:06:48;;;;;;;6.80;6.13;;;12.70;99.90;;;;;;5093189;28;20220;-75
2022/04/21 11:09:43;;;;;;;6.97;6.28;;;12.80;99.90;;;;;;5093883;28;20048;-73
2022/04/21 11:12:14;;;;;;;11.52;6.38;;;13.20;99.90;;;;;;5093329;28;20126;-74
2022/04/21 11:14:40;;;;;;;8.93;7.90;;;13.40;99.90;;;;;;5092980;28;20041;-72
2022/04/21 11:17:08;;;;;;;13.00;6.55;;;13.50;99.90;;;;;;5093259;28;20048;-74
2022/04/21 11:19:53;;;;;;;7.57;6.50;;;13.40;99.90;;;;;;5092927;28;20414;-74
2022/04/21 11:22:39;;;;;;;6.90;6.13;;;13.40;99.90;;;;;;5093222;28;20052;-73
2022/04/21 11:25:07;;;;;;;8.02;6.68;;;13.30;99.90;;;;;;5093280;28;20048;-75
2022/04/21 11:27:41;;;;;;;6.20;5.45;;;13.20;99.90;;;;;;5093143;28;20286;-73
2022/04/21 11:30:09;;;;;;;10.43;5.90;;;13.00;99.90;;;;;;5093036;28;20044;-73
2022/04/21 11:32:36;;;;;;;7.75;6.28;;;13.00;99.90;;;;;;5093131;28;20047;-73
2022/04/21 11:35:06;;;;;;;6.53;5.97;;;12.90;99.90;;;;;;5092998;28;20044;-73
2022/04/21 11:37:53;;;;;;;6.88;6.18;;;12.90;99.90;;;;;;5092986;28;20044;-73
2022/04/21 11:40:26;;;;;;;9.05;6.30;;;13.10;99.90;;;;;;5092957;28;20052;-73
2022/04/21 11:42:54;;;;;;;6.68;6.07;;;13.30;99.90;;;;;;5093198;28;20105;-72
2022/04/21 11:45:22;;;;;;;7.93;6.13;;;13.30;99.90;;;;;;5096505;28;20044;-74
2022/04/21 11:47:49;;;;;;;8.35;6.97;;;13.40;99.90;;;;;;5096177;28;20409;-73
2022/04/21 11:50:25;;;;;;;7.10;6.13;;;13.40;99.90;;;;;;5096088;28;20052;-74
2022/04/21 11:52:56;;;;;;;10.60;7.32;;;13.40;99.90;;;;;;5096320;28;20052;-74
2022/04/21 11:55:28;;;;;;;7.32;6.13;;;13.30;99.90;;;;;;5096346;28;20065;-73
2022/04/21 11:57:55;;;;;;;9.23;6.38;;;13.10;99.90;;;;;;5096294;28;20054;-74
2022/04/21 12:08:45;;;;;;;7.15;5.90;;;12.50;99.90;;;;;;5095623;28;20047;-74
2022/04/21 12:11:13;;;;;;;6.80;6.05;;;12.50;99.90;;;;;;5096121;28;20413;-74
2022/04/21 12:13:40;;;;;;;8.65;5.97;;;12.50;99.90;;;;;;5096014;28;20097;-74
2022/04/21 12:16:41;;;;;;;6.88;5.50;;;12.50;99.90;;;;;;5095936;28;20123;-73
2022/04/21 12:19:16;;;;;;;6.22;5.63;;;12.50;99.90;;;;;;5095624;28;20508;-74
2022/04/21 12:21:45;;;;;;;7.38;6.30;;;12.50;99.90;;;;;;5095536;28;20436;-74
2022/04/21 12:24:16;;;;;;;9.88;7.25;;;12.50;99.90;;;;;;5095526;28;20070;-73
2022/04/21 12:26:50;;;;;;;11.13;8.27;;;12.40;99.90;;;;;;5095413;28;20505;-73
2022/04/21 12:29:17;;;;;;;6.97;5.88;;;12.40;99.90;;;;;;5095101;28;20385;-73
2022/04/21 12:31:47;;;;;;;9.20;6.72;;;12.40;99.90;;;;;;5095517;28;20058;-73
2022/04/21 12:34:20;;;;;;;7.63;5.72;;;12.50;99.90;;;;;;5095592;28;20109;-73
2022/04/21 12:36:52;;;;;;;7.93;6.45;;;12.50;99.90;;;;;;5095485;28;20043;-73
2022/04/21 12:39:22;;;;;;;6.32;5.40;;;12.70;99.90;;;;;;5095379;28;20048;-74
2022/04/21 12:41:50;;;;;;;8.15;5.43;;;12.70;99.90;;;;;;5095454;28;20055;-74
2022/04/21 12:44:18;;;;;;;6.78;5.30;;;12.70;99.90;;;;;;5095287;28;20416;-72
2022/04/21 12:46:57;;;;;;;5.45;4.95;;;12.70;99.90;;;;;;5095074;28;20044;-73
2022/04/21 12:49:24;;;;;;;7.43;5.68;;;12.70;99.90;;;;;;5095149;28;20084;-74
2022/04/21 12:51:55;;;;;;;6.07;5.13;;;12.60;99.90;;;;;;5095170;28;20048;-74
2022/04/21 12:54:26;;;;;;;7.80;5.28;;;12.60;99.90;;;;;;5094770;28;20105;-73
2022/04/21 12:56:55;;;;;;;6.38;5.63;;;12.70;99.90;;;;;;5094850;28;20155;-74
2022/04/21 12:59:22;;;;;;;6.65;5.65;;;12.60;99.90;;;;;;5095213;28;20079;-73
2022/04/21 13:01:49;;;;;;;8.07;6.45;;;12.60;99.90;;;;;;5094580;28;20512;-73
2022/04/21 13:04:15;;;;;;;5.60;4.95;;;12.50;99.90;;;;;;5094923;28;20101;-73
2022/04/21 13:06:43;;;;;;;6.88;6.03;;;12.50;99.90;;;;;;5094766;28;20044;-73
2022/04/21 13:09:11;;;;;;;7.95;6.20;;;12.40;99.90;;;;;;5094608;28;20127;-72
2022/04/21 13:11:38;;;;;;;7.00;6.00;;;12.40;99.90;;;;;;5076411;28;20459;-72
2022/04/21 13:14:05;;;;;;;8.10;6.05;;;12.30;99.90;;;;;;5094774;28;20047;-73
2022/04/21 13:16:32;;;;;;;8.32;5.60;;;12.30;99.90;;;;;;5094624;28;20050;-73
2022/04/21 13:18:59;;;;;;;8.88;5.63;;;12.30;99.90;;;;;;5094760;28;20051;-73
2022/04/21 13:24:11;;;;;;;7.45;5.50;;;12.40;99.90;;;;;;5094581;28;20062;-73
2022/04/21 13:26:38;;;;;;;6.72;5.93;;;12.50;99.90;;;;;;5094716;28;20089;-74
2022/04/21 13:29:06;;;;;;;7.57;6.63;;;12.60;99.90;;;;;;5094234;28;20048;-73
2022/04/21 13:34:17;;;;;;;7.93;6.63;;;12.80;99.90;;;;;;5094330;28;20128;-72
2022/04/21 13:36:43;;;;;;;8.20;7.45;;;12.80;99.90;;;;;;5094203;28;20547;-74
2022/04/21 13:39:12;;;;;;;12.13;6.97;;;12.90;99.90;;;;;;5094356;28;20109;-73
2022/04/21 13:41:38;;;;;;;7.80;5.93;;;12.90;99.90;;;;;;5094234;28;20060;-74
2022/04/21 13:44:05;;;;;;;7.63;5.95;;;12.90;99.90;;;;;;5094307;28;20044;-74
2022/04/21 13:46:35;;;;;;;10.35;6.60;;;12.90;99.90;;;;;;5093691;28;20550;-75
2022/04/21 13:49:01;;;;;;;7.72;6.50;;;12.80;99.90;;;;;;5094245;28;20083;-74
2022/04/21 13:51:28;;;;;;;8.68;6.47;;;12.90;99.90;;;;;;5094053;28;20055;-73
2022/04/21 13:53:55;;;;;;;8.45;7.07;;;12.90;99.90;;;;;;5094061;28;20048;-73
2022/04/21 13:56:24;;;;;;;7.57;6.78;;;12.80;99.90;;;;;;5094072;28;20101;-73
2022/04/21 13:58:51;;;;;;;7.80;6.43;;;12.80;99.90;;;;;;5094457;28;20043;-74
2022/04/21 14:01:18;;;;;;;8.07;7.28;;;12.80;99.90;;;;;;5094033;28;20055;-73
2022/04/21 14:03:45;;;;;;;8.73;7.13;;;12.70;99.90;;;;;;5094506;28;20043;-74